sensor_id;sensor_type;location;lat;lon;timestamp;pressure;altitude;pressure_sealevel;temperature;humidity
4586;BME280;2305;50.118;8.952;2022-07-10T00:00:08;101276.44;;;17.30;100.00
4586;BME280;2305;50.118;8.952;2022-07-10T00:02:42;101273.38;;;17.25;100.00
4586;BME280;2305;50.118;8.952;2022-07-10T00:05:10;101274.19;;;17.25;100.00
4586;BME280;2305;50.118;8.952;2022-07-10T00:07:45;101270.03;;;17.23;100.00
4586;BME280;2305;50.118;8.952;2022-07-10T00:10:13;101275.63;;;17.20;100.00
4586;BME280;2305;50.118;8.952;2022-07-10T00:12:42;101271.97;;;17.21;100.00
4586;BME280;2305;50.118;8.952;2022-07-10T00:15:10;101268.50;;;17.20;100.00
4586;BME280;2305;50.118;8.952;2022-07-10T00:17:39;101268.63;;;17.19;100.00
4586;BME280;2305;50.118;8.952;2022-07-10T00:20:10;101278.88;;;17.14;100.00
4586;BME280;2305;50.118;8.952;2022-07-10T00:22:41;101272.84;;;17.12;100.00
4586;BME280;2305;50.118;8.952;2022-07-10T00:25:10;101276.50;;;17.11;100.00
4586;BME280;2305;50.118;8.952;2022-07-10T00:27:39;101280.72;;;17.04;100.00
4586;BME280;2305;50.118;8.952;2022-07-10T00:30:08;101276.66;;;17.00;100.00
4586;BME280;2305;50.118;8.952;2022-07-10T00:32:37;101272.06;;;16.92;100.00
4586;BME280;2305;50.118;8.952;2022-07-10T00:35:05;101275.69;;;16.91;100.00
4586;BME280;2305;50.118;8.952;2022-07-10T00:37:35;101272.88;;;16.83;100.00
4586;BME280;2305;50.118;8.952;2022-07-10T00:40:07;101278.78;;;16.77;100.00
4586;BME280;2305;50.118;8.952;2022-07-10T00:42:35;101278.78;;;16.77;100.00
4586;BME280;2305;50.118;8.952;2022-07-10T00:45:04;101282.41;;;16.76;100.00
4586;BME280;2305;50.118;8.952;2022-07-10T00:47:32;101284.38;;;16.74;100.00
4586;BME280;2305;50.118;8.952;2022-07-10T00:50:00;101289.56;;;16.76;100.00
4586;BME280;2305;50.118;8.952;2022-07-10T00:52:28;101289.84;;;16.73;100.00
4586;BME280;2305;50.118;8.952;2022-07-10T00:54:58;101299.78;;;16.71;100.00
4586;BME280;2305;50.118;8.952;2022-07-10T00:57:26;101299.22;;;16.67;100.00
4586;BME280;2305;50.118;8.952;2022-07-10T00:59:54;101297.69;;;16.65;100.00
4586;BME280;2305;50.118;8.952;2022-07-10T01:02:22;101293.78;;;16.59;100.00
4586;BME280;2305;50.118;8.952;2022-07-10T01:04:50;101292.22;;;16.57;100.00
4586;BME280;2305;50.118;8.952;2022-07-10T01:07:19;101295.19;;;16.54;100.00
4586;BME280;2305;50.118;8.952;2022-07-10T01:09:47;101298.09;;;16.51;100.00
4586;BME280;2305;50.118;8.952;2022-07-10T01:12:17;101298.38;;;16.48;100.00
4586;BME280;2305;50.118;8.952;2022-07-10T01:14:45;101290.25;;;16.40;100.00
4586;BME280;2305;50.118;8.952;2022-07-10T01:17:13;101290.66;;;16.35;100.00
4586;BME280;2305;50.118;8.952;2022-07-10T01:19:42;101290.91;;;16.32;100.00
4586;BME280;2305;50.118;8.952;2022-07-10T01:22:11;101290.34;;;16.29;100.00
4586;BME280;2305;50.118;8.952;2022-07-10T01:24:39;101293.28;;;16.26;100.00
4586;BME280;2305;50.118;8.952;2022-07-10T01:27:07;101292.59;;;16.24;100.00
4586;BME280;2305;50.118;8.952;2022-07-10T01:29:36;101299.16;;;16.20;100.00
4586;BME280;2305;50.118;8.952;2022-07-10T01:32:04;101303.78;;;16.18;100.00
4586;BME280;2305;50.118;8.952;2022-07-10T01:34:33;101304.31;;;16.12;100.00
4586;BME280;2305;50.118;8.952;2022-07-10T01:37:01;101309.75;;;16.10;100.00
4586;BME280;2305;50.118;8.952;2022-07-10T01:39:32;101304.19;;;16.13;100.00
4586;BME280;2305;50.118;8.952;2022-07-10T01:42:01;101299.44;;;16.17;100.00
4586;BME280;2305;50.118;8.952;2022-07-10T01:44:29;101298.03;;;16.13;100.00
4586;BME280;2305;50.118;8.952;2022-07-10T01:46:57;101303.34;;;16.13;100.00
4586;BME280;2305;50.118;8.952;2022-07-10T01:49:25;101298.03;;;16.13;100.00
4586;BME280;2305;50.118;8.952;2022-07-10T01:51:53;101305.44;;;16.09;100.00
4586;BME280;2305;50.118;8.952;2022-07-10T01:54:21;101311.16;;;16.05;100.00
4586;BME280;2305;50.118;8.952;2022-07-10T01:56:50;101300.53;;;16.05;100.00
4586;BME280;2305;50.118;8.952;2022-07-10T01:59:19;101307.22;;;16.09;100.00
4586;BME280;2305;50.118;8.952;2022-07-10T02:01:47;101302.91;;;16.08;100.00
4586;BME280;2305;50.118;8.952;2022-07-10T02:04:15;101311.16;;;16.05;100.00
4586;BME280;2305;50.118;8.952;2022-07-10T02:07:00;101308.06;;;16.00;100.00
4586;BME280;2305;50.118;8.952;2022-07-10T02:09:28;101311.69;;;15.99;100.00
4586;BME280;2305;50.118;8.952;2022-07-10T02:11:58;101310.72;;;16.00;100.00
4586;BME280;2305;50.118;8.952;2022-07-10T02:14:26;101307.50;;;15.96;100.00
4586;BME280;2305;50.118;8.952;2022-07-10T02:16:54;101306.78;;;15.94;100.00
4586;BME280;2305;50.118;8.952;2022-07-10T02:19:23;101305.38;;;15.90;100.00
4586;BME280;2305;50.118;8.952;2022-07-10T02:21:51;101305.66;;;15.87;100.00
4586;BME280;2305;50.118;8.952;2022-07-10T02:24:19;101302.81;;;15.79;100.00
4586;BME280;2305;50.118;8.952;2022-07-10T02:26:47;101310.91;;;15.78;100.00
4586;BME280;2305;50.118;8.952;2022-07-10T02:29:17;101301.28;;;15.77;100.00
4586;BME280;2305;50.118;8.952;2022-07-10T02:31:45;101302.13;;;15.77;100.00
4586;BME280;2305;50.118;8.952;2022-07-10T02:34:13;101301.69;;;15.72;100.00
4586;BME280;2305;50.118;8.952;2022-07-10T02:36:41;101295.91;;;15.67;100.00
4586;BME280;2305;50.118;8.952;2022-07-10T02:39:09;101296.19;;;15.64;100.00
4586;BME280;2305;50.118;8.952;2022-07-10T02:41:37;101299.66;;;15.65;100.00
4586;BME280;2305;50.118;8.952;2022-07-10T02:44:07;101305.97;;;15.64;100.00
4586;BME280;2305;50.118;8.952;2022-07-10T02:46:36;101305.97;;;15.64;100.00
4586;BME280;2305;50.118;8.952;2022-07-10T02:49:05;101307.66;;;15.65;100.00
4586;BME280;2305;50.118;8.952;2022-07-10T02:51:32;101311.56;;;15.61;100.00
4586;BME280;2305;50.118;8.952;2022-07-10T02:54:01;101310.97;;;15.57;100.00
4586;BME280;2305;50.118;8.952;2022-07-10T02:56:29;101317.13;;;15.58;100.00
4586;BME280;2305;50.118;8.952;2022-07-10T02:58:57;101319.94;;;15.56;100.00
4586;BME280;2305;50.118;8.952;2022-07-10T03:01:25;101314.34;;;15.59;100.00
4586;BME280;2305;50.118;8.952;2022-07-10T03:03:54;101322.19;;;15.61;100.00
4586;BME280;2305;50.118;8.952;2022-07-10T03:06:24;101326.00;;;15.68;100.00
4586;BME280;2305;50.118;8.952;2022-07-10T03:08:52;101322.09;;;15.72;100.00
4586;BME280;2305;50.118;8.952;2022-07-10T03:11:20;101320.97;;;15.74;100.00
4586;BME280;2305;50.118;8.952;2022-07-10T03:13:48;101322.41;;;15.78;100.00
4586;BME280;2305;50.118;8.952;2022-07-10T03:16:16;101323.69;;;15.84;100.00
4586;BME280;2305;50.118;8.952;2022-07-10T03:18:44;101322.00;;;15.83;100.00
4586;BME280;2305;50.118;8.952;2022-07-10T03:21:17;101318.25;;;15.85;100.00
4586;BME280;2305;50.118;8.952;2022-07-10T03:23:45;101312.63;;;15.88;100.00
4586;BME280;2305;50.118;8.952;2022-07-10T03:26:13;101314.59;;;15.86;100.00
4586;BME280;2305;50.118;8.952;2022-07-10T03:28:40;101313.91;;;15.84;100.00
4586;BME280;2305;50.118;8.952;2022-07-10T03:31:08;101320.56;;;15.79;100.00
4586;BME280;2305;50.118;8.952;2022-07-10T03:33:37;101321.97;;;15.73;100.00
4586;BME280;2305;50.118;8.952;2022-07-10T03:36:05;101333.69;;;15.71;100.00
4586;BME280;2305;50.118;8.952;2022-07-10T03:38:35;101325.03;;;15.69;100.00
4586;BME280;2305;50.118;8.952;2022-07-10T03:41:03;101339.13;;;15.69;100.00
4586;BME280;2305;50.118;8.952;2022-07-10T03:43:31;101328.38;;;15.71;100.00
4586;BME280;2305;50.118;8.952;2022-07-10T03:45:59;101332.72;;;15.72;100.00
4586;BME280;2305;50.118;8.952;2022-07-10T03:48:27;101334.53;;;15.71;100.00
4586;BME280;2305;50.118;8.952;2022-07-10T03:50:55;101332.00;;;15.70;100.00
4586;BME280;2305;50.118;8.952;2022-07-10T03:53:23;101332.72;;;15.72;100.00
4586;BME280;2305;50.118;8.952;2022-07-10T03:55:53;101336.94;;;15.74;100.00
4586;BME280;2305;50.118;8.952;2022-07-10T03:58:21;101345.28;;;15.70;100.00
4586;BME280;2305;50.118;8.952;2022-07-10T04:00:48;101337.31;;;15.70;100.00
4586;BME280;2305;50.118;8.952;2022-07-10T04:03:16;101343.50;;;15.70;100.00
4586;BME280;2305;50.118;8.952;2022-07-10T04:05:44;101349.38;;;15.74;100.00
4586;BME280;2305;50.118;8.952;2022-07-10T04:08:12;101338.59;;;15.75;100.00
4586;BME280;2305;50.118;8.952;2022-07-10T04:10:40;101331.59;;;15.74;100.00
4586;BME280;2305;50.118;8.952;2022-07-10T04:13:10;101338.75;;;15.74;100.00
4586;BME280;2305;50.118;8.952;2022-07-10T04:15:40;101335.25;;;15.73;100.00
4586;BME280;2305;50.118;8.952;2022-07-10T04:18:08;101338.56;;;15.66;100.00
4586;BME280;2305;50.118;8.952;2022-07-10T04:20:36;101335.53;;;15.70;100.00
4586;BME280;2305;50.118;8.952;2022-07-10T04:23:05;101338.03;;;15.72;100.00
4586;BME280;2305;50.118;8.952;2022-07-10T04:25:33;101339.34;;;15.77;100.00
4586;BME280;2305;50.118;8.952;2022-07-10T04:28:01;101339.91;;;15.81;100.00
4586;BME280;2305;50.118;8.952;2022-07-10T04:30:30;101349.97;;;15.87;100.00
4586;BME280;2305;50.118;8.952;2022-07-10T04:32:58;101345.00;;;15.93;100.00
4586;BME280;2305;50.118;8.952;2022-07-10T04:35:26;101351.28;;;16.02;100.00
4586;BME280;2305;50.118;8.952;2022-07-10T04:37:55;101357.19;;;16.05;100.00
4586;BME280;2305;50.118;8.952;2022-07-10T04:40:24;101359.47;;;16.10;100.00
4586;BME280;2305;50.118;8.952;2022-07-10T04:42:52;101360.03;;;16.13;100.00
4586;BME280;2305;50.118;8.952;2022-07-10T04:45:20;101363.28;;;16.17;100.00
4586;BME280;2305;50.118;8.952;2022-07-10T04:47:49;101370.69;;;16.23;100.00
4586;BME280;2305;50.118;8.952;2022-07-10T04:50:17;101367.91;;;16.24;100.00
4586;BME280;2305;50.118;8.952;2022-07-10T04:52:45;101360.03;;;16.23;100.00
4586;BME280;2305;50.118;8.952;2022-07-10T04:55:13;101359.66;;;16.27;100.00
4586;BME280;2305;50.118;8.952;2022-07-10T04:57:41;101367.66;;;16.27;100.00
4586;BME280;2305;50.118;8.952;2022-07-10T05:00:12;101364.41;;;16.24;100.00
4586;BME280;2305;50.118;8.952;2022-07-10T05:02:40;101368.31;;;16.20;100.00
4586;BME280;2305;50.118;8.952;2022-07-10T05:05:10;101360.06;;;16.32;100.00
4586;BME280;2305;50.118;8.952;2022-07-10T05:07:38;101358.81;;;16.27;100.00
4586;BME280;2305;50.118;8.952;2022-07-10T05:10:06;101366.91;;;16.25;100.00
4586;BME280;2305;50.118;8.952;2022-07-10T05:12:37;101369.16;;;16.30;100.00
4586;BME280;2305;50.118;8.952;2022-07-10T05:15:06;101371.56;;;16.33;100.00
4586;BME280;2305;50.118;8.952;2022-07-10T05:17:34;101374.81;;;16.36;100.00
4586;BME280;2305;50.118;8.952;2022-07-10T05:20:03;101369.47;;;16.36;100.00
4586;BME280;2305;50.118;8.952;2022-07-10T05:22:33;101361.00;;;16.42;100.00
4586;BME280;2305;50.118;8.952;2022-07-10T05:25:01;101365.88;;;16.37;100.00
4586;BME280;2305;50.118;8.952;2022-07-10T05:27:29;101368.63;;;16.36;100.00
4586;BME280;2305;50.118;8.952;2022-07-10T05:29:57;101368.06;;;16.32;100.00
4586;BME280;2305;50.118;8.952;2022-07-10T05:32:25;101376.44;;;16.28;100.00
4586;BME280;2305;50.118;8.952;2022-07-10T05:34:53;101377.00;;;16.31;100.00
4586;BME280;2305;50.118;8.952;2022-07-10T05:37:21;101376.94;;;16.42;100.00
4586;BME280;2305;50.118;8.952;2022-07-10T05:39:50;101377.66;;;16.54;100.00
4586;BME280;2305;50.118;8.952;2022-07-10T05:42:18;101386.50;;;16.64;100.00
4586;BME280;2305;50.118;8.952;2022-07-10T05:44:46;101381.75;;;16.77;100.00
4586;BME280;2305;50.118;8.952;2022-07-10T05:47:14;101381.91;;;16.85;100.00
4586;BME280;2305;50.118;8.952;2022-07-10T05:49:42;101383.03;;;16.92;100.00
4586;BME280;2305;50.118;8.952;2022-07-10T05:52:11;101389.78;;;16.96;100.00
4586;BME280;2305;50.118;8.952;2022-07-10T05:54:39;101387.50;;;17.01;100.00
4586;BME280;2305;50.118;8.952;2022-07-10T05:57:08;101387.25;;;17.04;100.00
4586;BME280;2305;50.118;8.952;2022-07-10T05:59:38;101385.84;;;17.09;100.00
4586;BME280;2305;50.118;8.952;2022-07-10T06:02:06;101380.81;;;17.16;100.00
4586;BME280;2305;50.118;8.952;2022-07-10T06:04:34;101389.75;;;17.34;100.00
4586;BME280;2305;50.118;8.952;2022-07-10T06:07:03;101394.53;;;17.40;100.00
4586;BME280;2305;50.118;8.952;2022-07-10T06:09:31;101388.66;;;17.46;100.00
4586;BME280;2305;50.118;8.952;2022-07-10T06:11:59;101387.09;;;17.53;100.00
4586;BME280;2305;50.118;8.952;2022-07-10T06:14:29;101389.47;;;17.56;100.00
4586;BME280;2305;50.118;8.952;2022-07-10T06:16:57;101387.63;;;17.66;100.00
4586;BME280;2305;50.118;8.952;2022-07-10T06:19:25;101391.09;;;17.76;100.00
4586;BME280;2305;50.118;8.952;2022-07-10T06:21:53;101398.22;;;17.85;100.00
4586;BME280;2305;50.118;8.952;2022-07-10T06:24:35;101394.56;;;17.86;100.00
4586;BME280;2305;50.118;8.952;2022-07-10T06:27:04;101398.19;;;17.94;100.00
4586;BME280;2305;50.118;8.952;2022-07-10T06:29:34;101384.59;;;17.88;100.00
4586;BME280;2305;50.118;8.952;2022-07-10T06:32:02;101394.41;;;17.87;100.00
4586;BME280;2305;50.118;8.952;2022-07-10T06:34:34;101386.72;;;17.84;100.00
4586;BME280;2305;50.118;8.952;2022-07-10T06:37:02;101388.28;;;17.77;100.00
4586;BME280;2305;50.118;8.952;2022-07-10T06:39:32;101396.44;;;17.76;100.00
4586;BME280;2305;50.118;8.952;2022-07-10T06:42:02;101396.59;;;17.65;100.00
4586;BME280;2305;50.118;8.952;2022-07-10T06:44:41;101397.75;;;17.53;100.00
4586;BME280;2305;50.118;8.952;2022-07-10T06:47:09;101399.56;;;17.52;100.00
4586;BME280;2305;50.118;8.952;2022-07-10T06:49:58;101404.19;;;17.60;100.00
4586;BME280;2305;50.118;8.952;2022-07-10T06:52:26;101396.31;;;17.68;100.00
4586;BME280;2305;50.118;8.952;2022-07-10T06:54:54;101399.78;;;17.78;100.00
4586;BME280;2305;50.118;8.952;2022-07-10T06:57:22;101391.88;;;17.95;100.00
4586;BME280;2305;50.118;8.952;2022-07-10T06:59:52;101399.53;;;18.08;100.00
4586;BME280;2305;50.118;8.952;2022-07-10T07:02:22;101401.72;;;18.22;100.00
4586;BME280;2305;50.118;8.952;2022-07-10T07:04:50;101398.22;;;18.31;100.00
4586;BME280;2305;50.118;8.952;2022-07-10T07:07:21;101396.91;;;18.25;100.00
4586;BME280;2305;50.118;8.952;2022-07-10T07:09:51;101394.25;;;18.35;100.00
4586;BME280;2305;50.118;8.952;2022-07-10T07:12:20;101397.19;;;18.41;100.00
4586;BME280;2305;50.118;8.952;2022-07-10T07:14:48;101387.00;;;18.54;100.00
4586;BME280;2305;50.118;8.952;2022-07-10T07:17:17;101390.44;;;18.64;100.00
4586;BME280;2305;50.118;8.952;2022-07-10T07:19:55;101389.44;;;18.65;100.00
4586;BME280;2305;50.118;8.952;2022-07-10T07:22:41;101384.78;;;18.67;100.00
4586;BME280;2305;50.118;8.952;2022-07-10T07:25:26;101385.69;;;18.76;100.00
4586;BME280;2305;50.118;8.952;2022-07-10T07:27:54;101393.66;;;18.85;100.00
4586;BME280;2305;50.118;8.952;2022-07-10T07:30:22;101386.09;;;18.81;100.00
4586;BME280;2305;50.118;8.952;2022-07-10T07:32:52;101391.63;;;18.70;100.00
4586;BME280;2305;50.118;8.952;2022-07-10T07:35:20;101394.09;;;18.81;100.00
4586;BME280;2305;50.118;8.952;2022-07-10T07:37:51;101383.72;;;18.77;100.00
4586;BME280;2305;50.118;8.952;2022-07-10T07:40:20;101378.44;;;18.85;100.00
4586;BME280;2305;50.118;8.952;2022-07-10T07:42:53;101382.19;;;18.92;100.00
4586;BME280;2305;50.118;8.952;2022-07-10T07:45:22;101385.31;;;19.05;100.00
4586;BME280;2305;50.118;8.952;2022-07-10T07:47:53;101387.09;;;19.14;100.00
4586;BME280;2305;50.118;8.952;2022-07-10T07:50:22;101388.34;;;19.20;100.00
4586;BME280;2305;50.118;8.952;2022-07-10T07:52:52;101390.00;;;19.21;100.00
4586;BME280;2305;50.118;8.952;2022-07-10T07:55:21;101393.59;;;19.12;100.00
4586;BME280;2305;50.118;8.952;2022-07-10T07:57:51;101391.22;;;19.26;100.00
4586;BME280;2305;50.118;8.952;2022-07-10T08:00:21;101390.44;;;19.16;100.00
4586;BME280;2305;50.118;8.952;2022-07-10T08:02:52;101395.53;;;19.10;100.00
4586;BME280;2305;50.118;8.952;2022-07-10T08:05:20;101390.44;;;19.16;100.00
4586;BME280;2305;50.118;8.952;2022-07-10T08:07:51;101382.81;;;19.21;100.00
4586;BME280;2305;50.118;8.952;2022-07-10T08:10:21;101383.34;;;19.25;100.00
4586;BME280;2305;50.118;8.952;2022-07-10T08:12:52;101384.19;;;19.25;100.00
4586;BME280;2305;50.118;8.952;2022-07-10T08:15:20;101383.25;;;19.34;100.00
4586;BME280;2305;50.118;8.952;2022-07-10T08:17:52;101390.47;;;19.34;100.00
4586;BME280;2305;50.118;8.952;2022-07-10T08:20:21;101382.13;;;19.37;100.00
4586;BME280;2305;50.118;8.952;2022-07-10T08:22:50;101387.47;;;19.37;100.00
4586;BME280;2305;50.118;8.952;2022-07-10T08:25:26;101381.44;;;19.35;100.00
4586;BME280;2305;50.118;8.952;2022-07-10T08:27:54;101386.78;;;19.35;100.00
4586;BME280;2305;50.118;8.952;2022-07-10T08:30:22;101385.31;;;19.40;100.00
4586;BME280;2305;50.118;8.952;2022-07-10T08:32:51;101398.00;;;19.38;100.00
4586;BME280;2305;50.118;8.952;2022-07-10T08:35:20;101389.50;;;19.43;100.00
4586;BME280;2305;50.118;8.952;2022-07-10T08:37:48;101394.53;;;19.46;100.00
4586;BME280;2305;50.118;8.952;2022-07-10T08:40:16;101405.47;;;19.52;100.00
4586;BME280;2305;50.118;8.952;2022-07-10T08:42:45;101398.44;;;19.51;99.73
4586;BME280;2305;50.118;8.952;2022-07-10T08:45:13;101395.63;;;19.35;100.00
4586;BME280;2305;50.118;8.952;2022-07-10T08:47:42;101391.44;;;19.15;100.00
4586;BME280;2305;50.118;8.952;2022-07-10T08:50:16;101394.13;;;19.15;100.00
4586;BME280;2305;50.118;8.952;2022-07-10T08:52:51;101397.09;;;19.30;100.00
4586;BME280;2305;50.118;8.952;2022-07-10T08:55:24;101395.72;;;19.43;100.00
4586;BME280;2305;50.118;8.952;2022-07-10T08:57:54;101395.22;;;19.65;100.00
4586;BME280;2305;50.118;8.952;2022-07-10T09:00:23;101392.53;;;19.65;100.00
4586;BME280;2305;50.118;8.952;2022-07-10T09:02:53;101393.97;;;19.60;100.00
4586;BME280;2305;50.118;8.952;2022-07-10T09:05:23;101393.16;;;19.59;100.00
4586;BME280;2305;50.118;8.952;2022-07-10T09:07:52;101400.06;;;19.70;100.00
4586;BME280;2305;50.118;8.952;2022-07-10T09:10:24;101396.59;;;19.77;99.21
4586;BME280;2305;50.118;8.952;2022-07-10T09:12:54;101390.81;;;19.82;99.30
4586;BME280;2305;50.118;8.952;2022-07-10T09:15:24;101395.72;;;19.94;99.67
4586;BME280;2305;50.118;8.952;2022-07-10T09:17:53;101392.81;;;20.13;100.00
4586;BME280;2305;50.118;8.952;2022-07-10T09:20:31;101394.94;;;20.35;100.00
4586;BME280;2305;50.118;8.952;2022-07-10T09:23:12;101399.59;;;20.33;94.71
4586;BME280;2305;50.118;8.952;2022-07-10T09:25:43;101399.69;;;20.16;96.97
4586;BME280;2305;50.118;8.952;2022-07-10T09:28:12;101397.66;;;20.10;97.47
4586;BME280;2305;50.118;8.952;2022-07-10T09:30:41;101395.47;;;20.05;98.43
4586;BME280;2305;50.118;8.952;2022-07-10T09:33:21;101401.19;;;20.10;100.00
4586;BME280;2305;50.118;8.952;2022-07-10T09:35:59;101394.63;;;20.38;100.00
4586;BME280;2305;50.118;8.952;2022-07-10T09:38:52;101391.50;;;20.67;100.00
4586;BME280;2305;50.118;8.952;2022-07-10T09:41:26;101390.53;;;20.76;92.91
4586;BME280;2305;50.118;8.952;2022-07-10T09:43:56;101374.97;;;20.71;95.08
4586;BME280;2305;50.118;8.952;2022-07-10T09:46:26;101393.38;;;20.66;95.10
4586;BME280;2305;50.118;8.952;2022-07-10T09:49:06;101393.38;;;20.74;96.84
4586;BME280;2305;50.118;8.952;2022-07-10T09:51:37;101379.81;;;20.68;93.92
4586;BME280;2305;50.118;8.952;2022-07-10T09:54:14;101375.78;;;20.72;98.22
4586;BME280;2305;50.118;8.952;2022-07-10T09:56:44;101383.72;;;20.89;99.28
4586;BME280;2305;50.118;8.952;2022-07-10T09:59:15;101377.72;;;20.95;95.54
4586;BME280;2305;50.118;8.952;2022-07-10T10:01:45;101378.38;;;21.05;93.52
4586;BME280;2305;50.118;8.952;2022-07-10T10:04:15;101368.34;;;21.23;96.83
4586;BME280;2305;50.118;8.952;2022-07-10T10:06:46;101368.16;;;21.41;96.22
4586;BME280;2305;50.118;8.952;2022-07-10T10:09:21;101357.25;;;21.50;94.94
4586;BME280;2305;50.118;8.952;2022-07-10T10:11:56;101357.75;;;21.54;94.85
4586;BME280;2305;50.118;8.952;2022-07-10T10:14:25;101350.22;;;21.57;95.09
4586;BME280;2305;50.118;8.952;2022-07-10T10:16:56;101353.88;;;21.72;94.22
4586;BME280;2305;50.118;8.952;2022-07-10T10:19:26;101355.69;;;21.88;94.26
4586;BME280;2305;50.118;8.952;2022-07-10T10:22:13;101350.78;;;21.99;92.01
4586;BME280;2305;50.118;8.952;2022-07-10T10:24:42;101343.53;;;22.08;91.91
4586;BME280;2305;50.118;8.952;2022-07-10T10:27:13;101337.38;;;21.99;91.52
4586;BME280;2305;50.118;8.952;2022-07-10T10:29:42;101340.56;;;21.95;94.13
4586;BME280;2305;50.118;8.952;2022-07-10T10:32:12;101351.88;;;21.74;89.74
4586;BME280;2305;50.118;8.952;2022-07-10T10:34:41;101341.28;;;21.65;94.23
4586;BME280;2305;50.118;8.952;2022-07-10T10:37:33;101347.50;;;21.73;91.89
4586;BME280;2305;50.118;8.952;2022-07-10T10:40:04;101339.06;;;21.84;89.35
4586;BME280;2305;50.118;8.952;2022-07-10T10:42:37;101334.25;;;22.18;85.43
4586;BME280;2305;50.118;8.952;2022-07-10T10:45:22;101330.78;;;22.40;83.81
4586;BME280;2305;50.118;8.952;2022-07-10T10:48:00;101344.75;;;22.36;83.96
4586;BME280;2305;50.118;8.952;2022-07-10T10:50:51;101330.06;;;22.24;82.37
4586;BME280;2305;50.118;8.952;2022-07-10T10:53:23;101326.03;;;22.20;85.39
4586;BME280;2305;50.118;8.952;2022-07-10T10:56:23;101334.84;;;22.36;86.50
4586;BME280;2305;50.118;8.952;2022-07-10T10:58:56;101334.53;;;22.31;80.83
4586;BME280;2305;50.118;8.952;2022-07-10T11:01:26;101335.25;;;22.17;84.09
4586;BME280;2305;50.118;8.952;2022-07-10T11:04:17;101333.34;;;21.95;83.15
4586;BME280;2305;50.118;8.952;2022-07-10T11:06:48;101329.88;;;21.79;84.71
4586;BME280;2305;50.118;8.952;2022-07-10T11:09:26;101334.41;;;21.86;86.94
4586;BME280;2305;50.118;8.952;2022-07-10T11:12:01;101324.00;;;22.22;90.50
4586;BME280;2305;50.118;8.952;2022-07-10T11:14:30;101321.66;;;22.57;89.89
4586;BME280;2305;50.118;8.952;2022-07-10T11:16:59;101319.31;;;22.54;82.62
4586;BME280;2305;50.118;8.952;2022-07-10T11:19:28;101320.31;;;22.53;83.65
4586;BME280;2305;50.118;8.952;2022-07-10T11:22:26;101314.81;;;22.77;83.12
4586;BME280;2305;50.118;8.952;2022-07-10T11:25:07;101313.47;;;23.18;85.05
4586;BME280;2305;50.118;8.952;2022-07-10T11:27:58;101304.50;;;23.40;75.34
4586;BME280;2305;50.118;8.952;2022-07-10T11:30:43;101303.84;;;23.38;78.14
4586;BME280;2305;50.118;8.952;2022-07-10T11:33:11;101305.13;;;23.28;77.18
4586;BME280;2305;50.118;8.952;2022-07-10T11:35:46;101307.00;;;23.27;75.37
4586;BME280;2305;50.118;8.952;2022-07-10T11:38:22;101311.84;;;23.09;72.06
4586;BME280;2305;50.118;8.952;2022-07-10T11:40:52;101308.19;;;22.80;76.22
4586;BME280;2305;50.118;8.952;2022-07-10T11:43:22;101300.03;;;22.73;77.13
4586;BME280;2305;50.118;8.952;2022-07-10T11:45:51;101309.13;;;22.72;78.43
4586;BME280;2305;50.118;8.952;2022-07-10T11:48:22;101302.66;;;22.59;76.62
4586;BME280;2305;50.118;8.952;2022-07-10T11:50:50;101289.31;;;22.43;78.88
4586;BME280;2305;50.118;8.952;2022-07-10T11:53:25;101296.28;;;22.29;78.92
4586;BME280;2305;50.118;8.952;2022-07-10T11:55:55;101292.06;;;21.96;81.37
4586;BME280;2305;50.118;8.952;2022-07-10T11:58:23;101295.47;;;21.82;83.31
4586;BME280;2305;50.118;8.952;2022-07-10T12:00:59;101296.78;;;21.94;83.96
4586;BME280;2305;50.118;8.952;2022-07-10T12:03:29;101288.69;;;22.02;80.12
4586;BME280;2305;50.118;8.952;2022-07-10T12:06:01;101284.50;;;22.30;80.69
4586;BME280;2305;50.118;8.952;2022-07-10T12:08:44;101285.34;;;22.84;78.95
4586;BME280;2305;50.118;8.952;2022-07-10T12:11:17;101278.69;;;23.17;73.97
4586;BME280;2305;50.118;8.952;2022-07-10T12:13:50;101274.56;;;23.43;70.10
4586;BME280;2305;50.118;8.952;2022-07-10T12:16:19;101285.13;;;23.45;69.67
4586;BME280;2305;50.118;8.952;2022-07-10T12:18:48;101288.56;;;23.39;71.35
4586;BME280;2305;50.118;8.952;2022-07-10T12:21:17;101295.91;;;23.45;71.63
4586;BME280;2305;50.118;8.952;2022-07-10T12:23:45;101283.28;;;23.60;75.76
4586;BME280;2305;50.118;8.952;2022-07-10T12:26:16;101284.13;;;23.75;74.13
4586;BME280;2305;50.118;8.952;2022-07-10T12:28:55;101290.22;;;23.83;69.40
4586;BME280;2305;50.118;8.952;2022-07-10T12:31:24;101283.38;;;23.95;68.95
4586;BME280;2305;50.118;8.952;2022-07-10T12:33:55;101282.97;;;24.13;68.02
4586;BME280;2305;50.118;8.952;2022-07-10T12:36:40;101283.44;;;24.16;64.35
4586;BME280;2305;50.118;8.952;2022-07-10T12:39:08;101280.41;;;24.05;66.35
4586;BME280;2305;50.118;8.952;2022-07-10T12:41:59;101276.38;;;24.15;66.97
4586;BME280;2305;50.118;8.952;2022-07-10T12:44:39;101273.28;;;24.33;68.34
4586;BME280;2305;50.118;8.952;2022-07-10T12:47:08;101270.13;;;24.50;67.78
4586;BME280;2305;50.118;8.952;2022-07-10T12:49:50;101273.00;;;24.84;68.28
4586;BME280;2305;50.118;8.952;2022-07-10T12:52:23;101271.06;;;24.99;67.90
4586;BME280;2305;50.118;8.952;2022-07-10T12:55:08;101273.41;;;25.08;67.27
4586;BME280;2305;50.118;8.952;2022-07-10T12:57:49;101280.47;;;25.09;64.90
4586;BME280;2305;50.118;8.952;2022-07-10T13:00:20;101267.44;;;25.13;62.85
4586;BME280;2305;50.118;8.952;2022-07-10T13:02:50;101265.09;;;25.31;61.27
4586;BME280;2305;50.118;8.952;2022-07-10T13:05:26;101261.44;;;25.45;58.40
4586;BME280;2305;50.118;8.952;2022-07-10T13:08:04;101271.78;;;24.86;58.07
4586;BME280;2305;50.118;8.952;2022-07-10T13:10:33;101272.56;;;24.45;60.91
4586;BME280;2305;50.118;8.952;2022-07-10T13:13:04;101265.88;;;24.20;63.21
4586;BME280;2305;50.118;8.952;2022-07-10T13:15:35;101260.78;;;24.11;64.54
4586;BME280;2305;50.118;8.952;2022-07-10T13:18:12;101265.59;;;24.15;67.42
4586;BME280;2305;50.118;8.952;2022-07-10T13:20:40;101258.81;;;24.19;65.36